Time;durP1;ratioP1;P1;durP2;ratioP2;P2;SDS_P1;SDS_P2;PMS_P1;PMS_P2;Temp;Humidity;BMP_temperature;BMP_pressure;BME280_temperature;BME280_humidity;BME280_pressure;Samples;Min_cycle;Max_cycle;Signal;HPM_P1;HPM_P2
2023/06/28 00:01:55;;;;;;;6.65;5.18;;;;;;;20.34;86.53;94446.53;5105483;28;20212;-43
2023/06/28 00:04:22;;;;;;;9.63;6.03;;;;;;;20.34;86.90;94448.34;5090334;28;20588;-43
2023/06/28 00:06:49;;;;;;;6.47;5.60;;;;;;;20.30;86.97;94448.75;5089903;28;20569;-45
2023/06/28 00:09:15;;;;;;;6.35;5.68;;;;;;;20.29;87.50;94454.13;5090000;28;20258;-44
2023/06/28 00:11:45;;;;;;;7.55;5.50;;;;;;;20.25;87.93;94451.16;5090062;28;20255;-43
2023/06/28 00:14:12;;;;;;;6.13;5.53;;;;;;;20.23;87.83;94450.53;5089946;28;20192;-45
2023/06/28 00:16:39;;;;;;;6.78;6.10;;;;;;;20.21;87.54;94446.56;5089460;28;20660;-44
2023/06/28 00:19:06;;;;;;;10.82;6.90;;;;;;;20.18;87.62;94441.78;5090596;28;20307;-46
2023/06/28 00:21:33;;;;;;;6.40;5.80;;;;;;;20.18;87.54;94441.78;5089703;28;20189;-43
2023/06/28 00:24:00;;;;;;;8.43;6.25;;;;;;;20.15;87.84;94447.38;5090185;28;20648;-44
2023/06/28 00:26:27;;;;;;;7.33;6.27;;;;;;;20.10;88.24;94444.59;5090023;28;20182;-45
2023/06/28 00:28:55;;;;;;;5.97;5.37;;;;;;;20.12;88.63;94445.16;5090096;28;20661;-44
2023/06/28 00:31:22;;;;;;;7.03;6.15;;;;;;;20.07;88.71;94448.38;5089586;28;20189;-45
2023/06/28 00:33:49;;;;;;;8.88;6.60;;;;;;;20.04;89.01;94449.59;5089918;28;20193;-44
2023/06/28 00:36:16;;;;;;;6.80;5.68;;;;;;;20.04;89.54;94448.78;5090296;28;20564;-42
2023/06/28 00:38:42;;;;;;;6.78;5.97;;;;;;;20.01;90.07;94451.78;5089844;28;20544;-45
2023/06/28 00:41:09;;;;;;;6.60;5.90;;;;;;;19.99;89.92;94454.59;5090566;28;20185;-44
2023/06/28 00:43:36;;;;;;;10.43;6.13;;;;;;;19.98;89.70;94444.38;5089356;28;20190;-44
2023/06/28 00:46:04;;;;;;;8.60;6.37;;;;;;;19.98;89.46;94454.78;5089793;28;20514;-44
2023/06/28 00:48:32;;;;;;;7.47;6.53;;;;;;;19.93;90.01;94441.59;5089465;28;20205;-45
2023/06/28 00:50:59;;;;;;;8.23;6.78;;;;;;;19.91;89.77;94449.59;5089817;28;20653;-44
2023/06/28 00:53:26;;;;;;;11.40;7.03;;;;;;;19.89;89.74;94449.00;5089274;28;20193;-44
2023/06/28 00:55:53;;;;;;;10.20;7.23;;;;;;;19.87;89.25;94448.41;5089638;28;20519;-44
2023/06/28 00:58:21;;;;;;;10.23;7.17;;;;;;;19.37;88.67;94367.56;5089649;28;20583;-44
2023/06/28 01:00:47;;;;;;;7.97;7.07;;;;;;;19.84;88.68;94448.81;5089625;28;20284;-44
2023/06/28 01:03:18;;;;;;;7.45;6.75;;;;;;;19.82;88.61;94444.78;5089425;28;20637;-43
2023/06/28 01:05:46;;;;;;;7.90;7.10;;;;;;;19.84;88.41;94450.59;5089636;28;20194;-43
2023/06/28 01:08:14;;;;;;;7.97;7.27;;;;;;;19.83;88.39;94446.41;5089260;28;20200;-45
2023/06/28 01:10:42;;;;;;;8.03;7.13;;;;;;;19.85;87.71;94455.59;5089423;28;20289;-44
2023/06/28 01:13:09;;;;;;;8.27;7.47;;;;;;;19.80;87.84;94453.59;5089529;28;20197;-45
2023/06/28 01:15:36;;;;;;;7.77;6.97;;;;;;;19.65;87.90;94424.47;5089639;28;20628;-43
2023/06/28 01:18:03;;;;;;;7.82;7.13;;;;;;;18.81;87.98;94303.13;5089580;28;20193;-43
2023/06/28 01:20:32;;;;;;;7.80;7.10;;;;;;;19.75;88.13;94444.81;5089253;28;20209;-44
2023/06/28 01:23:01;;;;;;;7.60;6.90;;;;;;;19.73;88.38;94447.63;5089300;28;20182;-44
2023/06/28 01:25:27;;;;;;;8.38;7.53;;;;;;;19.70;88.69;94442.81;5089292;28;20189;-43
2023/06/28 01:27:55;;;;;;;12.00;7.63;;;;;;;19.74;88.82;94451.81;5091704;28;20225;-44
2023/06/28 01:30:23;;;;;;;13.87;8.03;;;;;;;19.73;89.27;94452.81;5093155;28;20573;-44
2023/06/28 01:32:50;;;;;;;9.07;7.60;;;;;;;19.70;90.79;94445.41;5093951;28;20197;-42
2023/06/28 01:35:17;;;;;;;9.70;7.70;;;;;;;19.67;91.30;94448.41;5093424;28;20557;-45
2023/06/28 01:37:44;;;;;;;9.20;7.77;;;;;;;19.62;91.58;94455.19;5092925;28;20193;-44
2023/06/28 01:40:15;;;;;;;11.67;8.10;;;;;;;19.58;91.82;94454.75;5092481;28;20274;-45
2023/06/28 01:42:42;;;;;;;12.00;8.17;;;;;;;19.51;92.13;94448.75;5093228;28;20189;-44
2023/06/28 01:45:10;;;;;;;8.52;7.60;;;;;;;19.52;92.41;94458.94;5093046;28;20266;-43
2023/06/28 01:47:37;;;;;;;8.87;7.80;;;;;;;19.29;92.63;94424.81;5093083;28;20576;-44
2023/06/28 01:50:06;;;;;;;10.90;8.80;;;;;;;19.43;93.31;94454.13;5092623;28;20200;-43
2023/06/28 01:52:33;;;;;;;8.82;8.02;;;;;;;19.42;93.78;94457.72;5092636;28;20533;-44
2023/06/28 01:55:00;;;;;;;9.93;8.90;;;;;;;19.40;93.94;94454.53;5092800;28;20190;-45
2023/06/28 01:57:28;;;;;;;10.17;8.83;;;;;;;19.39;93.82;94465.94;5092806;28;20693;-43
2023/06/28 01:59:55;;;;;;;9.20;8.30;;;;;;;19.34;93.86;94461.31;5092848;28;20626;-44
2023/06/28 02:02:22;;;;;;;9.53;8.53;;;;;;;19.34;93.92;94461.31;5092798;28;20216;-44
2023/06/28 02:04:49;;;;;;;8.40;7.70;;;;;;;19.30;93.61;94455.72;5092383;28;20649;-43
2023/06/28 02:07:15;;;;;;;11.00;9.23;;;;;;;19.34;93.42;94463.09;5092344;28;20567;-44
2023/06/28 02:09:42;;;;;;;9.70;8.60;;;;;;;19.30;92.90;94463.50;5092608;28;20625;-45
2023/06/28 02:12:09;;;;;;;9.73;8.47;;;;;;;19.33;92.15;94464.09;5092424;28;20197;-44
2023/06/28 02:14:39;;;;;;;10.00;8.20;;;;;;;19.33;92.14;94471.88;5092747;28;20687;-44
2023/06/28 02:17:07;;;;;;;10.07;9.03;;;;;;;19.31;91.87;94482.47;5092605;28;20270;-45
2023/06/28 02:19:35;;;;;;;10.53;9.50;;;;;;;19.30;91.57;94483.47;5092392;28;20271;-44
2023/06/28 02:22:02;;;;;;;11.50;9.60;;;;;;;18.79;91.18;94398.41;5092400;28;20247;-45
2023/06/28 02:24:29;;;;;;;9.83;8.90;;;;;;;19.27;90.92;94473.47;5092111;28;20620;-45
2023/06/28 02:26:55;;;;;;;10.73;9.63;;;;;;;19.32;90.49;94485.84;5091799;28;20193;-44
2023/06/28 02:29:22;;;;;;;10.57;9.57;;;;;;;19.29;90.26;94479.25;5092017;28;20679;-46
2023/06/28 02:31:51;;;;;;;11.90;10.77;;;;;;;19.42;89.78;94484.47;5091607;28;20685;-45
2023/06/28 02:34:17;;;;;;;11.20;10.10;;;;;;;19.42;90.12;94479.28;5091747;28;20641;-43
2023/06/28 02:36:44;;;;;;;10.60;9.70;;;;;;;19.46;90.04;94477.09;5092176;28;20181;-45
2023/06/28 02:39:11;;;;;;;10.80;9.63;;;;;;;19.46;89.95;94485.66;5091781;28;20213;-45
2023/06/28 02:41:38;;;;;;;10.57;9.47;;;;;;;19.50;90.60;94473.09;5092036;28;20193;-43
2023/06/28 02:44:05;;;;;;;11.27;10.27;;;;;;;19.48;90.51;94483.69;5091732;28;20192;-43
2023/06/28 02:46:31;;;;;;;11.20;10.10;;;;;;;19.47;90.90;94473.50;5091879;28;20202;-44
2023/06/28 02:49:00;;;;;;;10.77;9.67;;;;;;;19.49;90.98;94481.88;5091632;28;20189;-43
2023/06/28 02:51:26;;;;;;;10.93;9.93;;;;;;;19.46;90.90;94485.66;5091907;28;20251;-45
2023/06/28 02:53:53;;;;;;;12.63;10.67;;;;;;;19.29;90.93;94461.91;5091144;28;20190;-43
2023/06/28 02:56:23;;;;;;;11.93;10.60;;;;;;;19.42;91.19;94474.09;5091672;28;20283;-43
2023/06/28 02:58:49;;;;;;;11.33;10.33;;;;;;;19.41;91.27;94464.72;5091065;28;20596;-43
2023/06/28 03:01:16;;;;;;;12.17;11.07;;;;;;;19.44;91.60;94473.91;5091269;28;20571;-46
2023/06/28 03:03:43;;;;;;;13.27;10.13;;;;;;;19.39;91.73;94484.06;5091260;28;20213;-45
2023/06/28 03:06:11;;;;;;;12.40;10.67;;;;;;;19.42;91.68;94492.25;5091710;28;20269;-43
2023/06/28 03:08:38;;;;;;;13.50;10.47;;;;;;;19.43;92.13;94487.84;5091067;28;20693;-43
2023/06/28 03:11:05;;;;;;;14.83;11.30;;;;;;;19.51;92.18;94496.25;5092172;28;20200;-45
2023/06/28 03:13:33;;;;;;;12.67;10.70;;;;;;;19.44;91.96;94498.03;5091449;28;20204;-45
2023/06/28 03:15:59;;;;;;;12.70;10.70;;;;;;;19.44;91.92;94489.47;5091213;28;20193;-45
2023/06/28 03:18:26;;;;;;;12.33;11.10;;;;;;;19.32;92.10;94465.09;5091533;28;20193;-44
2023/06/28 03:20:53;;;;;;;10.97;9.90;;;;;;;19.48;91.91;94488.06;5090611;28;20232;-45
2023/06/28 03:23:22;;;;;;;14.10;11.30;;;;;;;19.53;91.89;94489.06;5091111;28;20198;-43
2023/06/28 03:25:49;;;;;;;19.13;11.50;;;;;;;19.02;91.99;94403.22;5090815;28;20189;-44
2023/06/28 03:28:16;;;;;;;16.33;12.10;;;;;;;19.48;92.11;94477.69;5090808;28;20274;-44
2023/06/28 03:30:42;;;;;;;13.00;11.63;;;;;;;19.54;91.88;94477.69;5090457;28;20193;-44
2023/06/28 03:33:09;;;;;;;13.37;11.87;;;;;;;19.55;91.96;94481.09;5091326;28;20185;-45
2023/06/28 03:35:36;;;;;;;15.00;11.23;;;;;;;19.61;91.79;94482.13;5090743;28;20277;-44
2023/06/28 03:38:03;;;;;;;12.77;11.47;;;;;;;19.64;91.55;94484.31;5091017;28;20186;-42
2023/06/28 03:40:31;;;;;;;13.07;10.97;;;;;;;19.69;91.12;94482.75;5090285;28;20608;-44
2023/06/28 03:42:58;;;;;;;13.43;12.03;;;;;;;19.69;90.64;94469.78;5090908;28;20185;-46
2023/06/28 03:45:25;;;;;;;12.70;11.37;;;;;;;19.83;90.46;94483.53;5090575;28;20194;-46
2023/06/28 03:47:51;;;;;;;16.13;12.03;;;;;;;19.96;89.97;94482.75;5091227;28;20204;-45
2023/06/28 03:50:18;;;;;;;12.97;11.63;;;;;;;20.02;89.64;94482.72;5090048;28;20185;-43
2023/06/28 03:52:45;;;;;;;13.60;12.30;;;;;;;20.12;89.16;94477.16;5090964;28;20186;-44
2023/06/28 03:55:12;;;;;;;15.07;12.30;;;;;;;20.23;88.92;94480.91;5090862;28;20200;-42
2023/06/28 03:57:40;;;;;;;14.85;11.95;;;;;;;20.35;88.17;94479.28;5090789;28;20182;-45
2023/06/28 04:00:09;;;;;;;15.05;11.77;;;;;;;20.41;87.84;94478.47;5090218;28;20672;-44
2023/06/28 04:02:36;;;;;;;14.18;11.10;;;;;;;20.46;87.73;94470.84;5090416;28;20189;-45
2023/06/28 04:05:03;;;;;;;13.98;11.52;;;;;;;20.51;87.21;94468.50;5090512;28;20193;-45
2023/06/28 04:07:30;;;;;;;16.75;13.10;;;;;;;20.65;87.01;94471.06;5089988;28;20617;-45
2023/06/28 04:09:57;;;;;;;14.20;12.38;;;;;;;20.76;86.35;94478.19;5090105;28;20193;-44
2023/06/28 04:12:24;;;;;;;13.50;11.85;;;;;;;20.88;85.77;94478.34;5090437;28;20193;-44
2023/06/28 04:14:52;;;;;;;15.27;11.98;;;;;;;20.98;85.98;94476.09;5090561;28;20216;-44
2023/06/28 04:17:19;;;;;;;15.85;12.57;;;;;;;21.07;85.94;94479.25;5089849;28;20566;-44
2023/06/28 04:19:46;;;;;;;13.65;12.40;;;;;;;20.98;85.53;94450.94;5090099;28;20261;-45
2023/06/28 04:22:13;;;;;;;13.40;12.05;;;;;;;21.29;85.35;94485.78;5090096;28;20220;-44
2023/06/28 04:24:40;;;;;;;14.65;13.23;;;;;;;21.36;84.64;94480.56;5089804;28;20595;-44
2023/06/28 04:27:07;;;;;;;14.48;12.77;;;;;;;21.39;84.97;94473.13;5089874;28;20201;-45
2023/06/28 04:29:33;;;;;;;14.18;12.63;;;;;;;21.53;84.41;94479.03;5089577;28;20217;-45
2023/06/28 04:32:02;;;;;;;14.43;12.07;;;;;;;21.54;84.51;94475.41;5089915;28;20193;-44
2023/06/28 04:34:29;;;;;;;17.42;12.50;;;;;;;21.70;83.99;94482.72;5089535;28;20198;-45
2023/06/28 04:36:58;;;;;;;13.93;12.50;;;;;;;21.81;83.54;94478.66;5089990;28;20241;-46
2023/06/28 04:39:25;;;;;;;15.05;11.77;;;;;;;21.84;83.20;94470.41;5089299;28;20190;-44
2023/06/28 04:41:52;;;;;;;15.05;11.02;;;;;;;22.00;82.43;94480.28;5089541;28;20217;-45
2023/06/28 04:44:19;;;;;;;13.90;12.40;;;;;;;21.99;81.38;94457.88;5089223;28;20221;-45
2023/06/28 04:46:46;;;;;;;14.25;12.13;;;;;;;22.18;81.58;94478.75;5089890;28;20194;-44
2023/06/28 04:49:14;;;;;;;11.98;10.77;;;;;;;22.32;81.04;94488.03;5089620;28;20599;-44
2023/06/28 04:51:41;;;;;;;12.20;10.98;;;;;;;22.44;79.71;94486.31;5089332;28;20189;-44
2023/06/28 04:54:08;;;;;;;12.43;11.23;;;;;;;22.55;78.40;94495.25;5089494;28;20224;-45
2023/06/28 04:56:36;;;;;;;12.68;10.93;;;;;;;22.54;78.61;94494.44;5089668;28;20189;-44
2023/06/28 04:59:03;;;;;;;12.73;10.90;;;;;;;22.66;77.74;94498.94;5089538;28;20185;-45
2023/06/28 05:01:30;;;;;;;13.07;11.77;;;;;;;22.76;77.74;94507.84;5091309;28;20731;-45
2023/06/28 05:03:57;;;;;;;14.30;12.68;;;;;;;22.83;77.15;94506.97;5093824;28;20181;-44
2023/06/28 05:06:28;;;;;;;13.23;11.82;;;;;;;22.76;77.87;94496.63;5093062;28;20677;-43
2023/06/28 05:08:55;;;;;;;12.75;11.32;;;;;;;22.93;77.80;94512.53;5093600;28;20519;-45
2023/06/28 05:11:22;;;;;;;13.75;12.00;;;;;;;23.09;77.27;94498.06;5093310;28;20675;-44
2023/06/28 05:13:48;;;;;;;13.15;10.68;;;;;;;23.37;76.66;94506.13;5093699;28;20192;-44
2023/06/28 05:16:15;;;;;;;13.27;11.88;;;;;;;23.66;75.14;94501.94;5093626;28;20266;-46
2023/06/28 05:18:42;;;;;;;12.98;11.70;;;;;;;23.95;74.28;94508.13;5093589;28;20190;-45
2023/06/28 05:21:09;;;;;;;13.20;11.88;;;;;;;24.16;73.72;94513.84;5093196;28;20248;-45
2023/06/28 05:23:37;;;;;;;14.93;11.88;;;;;;;24.35;72.49;94507.47;5093489;28;20190;-44
2023/06/28 05:26:04;;;;;;;12.25;11.02;;;;;;;24.61;71.76;94502.81;5093202;28;20251;-46
2023/06/28 05:28:30;;;;;;;12.65;10.82;;;;;;;24.85;71.60;94509.63;5093056;28;20278;-44
2023/06/28 05:30:57;;;;;;;12.45;11.35;;;;;;;25.14;70.87;94499.22;5093571;28;20189;-43
2023/06/28 05:33:24;;;;;;;12.98;10.85;;;;;;;25.43;68.71;94502.63;5093764;28;20201;-47
2023/06/28 05:35:51;;;;;;;12.38;11.18;;;;;;;25.64;67.82;94503.78;5093366;28;20272;-46
2023/06/28 05:38:18;;;;;;;11.45;10.25;;;;;;;25.81;67.40;94495.97;5093817;28;20205;-45
2023/06/28 05:40:47;;;;;;;12.27;10.43;;;;;;;25.98;66.65;94502.03;5093081;28;20229;-45
2023/06/28 05:43:14;;;;;;;12.13;10.60;;;;;;;26.22;66.19;94505.28;5093141;28;20186;-45
2023/06/28 05:45:40;;;;;;;12.02;10.50;;;;;;;26.46;65.37;94521.66;5092876;28;20193;-44
2023/06/28 05:48:07;;;;;;;11.27;9.73;;;;;;;26.70;65.01;94512.56;5092702;28;20227;-45
2023/06/28 05:50:34;;;;;;;12.05;10.77;;;;;;;26.90;63.65;94509.41;5092594;28;20652;-47
2023/06/28 05:53:01;;;;;;;13.05;11.73;;;;;;;27.05;62.59;94511.41;5092610;28;20199;-44
2023/06/28 05:55:28;;;;;;;13.55;11.82;;;;;;;27.06;61.64;94510.38;5092550;28;20262;-45
2023/06/28 05:57:56;;;;;;;12.63;11.48;;;;;;;27.06;61.02;94517.44;5092497;28;20637;-47
2023/06/28 06:00:23;;;;;;;11.52;10.32;;;;;;;27.05;61.04;94516.66;5092718;28;20225;-44
2023/06/28 06:02:50;;;;;;;12.65;11.38;;;;;;;27.04;61.38;94512.47;5092133;28;20189;-46
2023/06/28 06:05:16;;;;;;;14.77;12.27;;;;;;;27.08;61.29;94516.19;5092799;28;20277;-45
2023/06/28 06:07:43;;;;;;;14.05;12.40;;;;;;;27.13;60.99;94507.59;5092941;28;20273;-48
2023/06/28 06:10:10;;;;;;;13.43;12.13;;;;;;;27.33;60.48;94505.22;5092876;28;20194;-43
2023/06/28 06:12:38;;;;;;;13.82;12.35;;;;;;;27.44;59.07;94499.00;5091909;28;20188;-44
2023/06/28 06:15:08;;;;;;;13.65;12.35;;;;;;;27.50;58.79;94502.47;5092868;28;20185;-44
2023/06/28 06:17:34;;;;;;;13.65;12.25;;;;;;;27.59;59.61;94503.63;5092576;28;20235;-45
2023/06/28 06:20:02;;;;;;;14.73;12.00;;;;;;;27.71;59.17;94504.25;5092186;28;20769;-45
2023/06/28 06:22:29;;;;;;;13.48;12.13;;;;;;;27.81;58.38;94502.78;5092430;28;20648;-46
2023/06/28 06:24:56;;;;;;;13.55;12.02;;;;;;;27.94;58.21;94502.38;5092228;28;20178;-46
2023/06/28 06:27:22;;;;;;;14.05;12.65;;;;;;;28.05;57.59;94508.50;5091991;28;20705;-45
2023/06/28 06:29:49;;;;;;;13.48;11.23;;;;;;;27.87;58.20;94496.53;5091656;28;20563;-47
2023/06/28 06:32:17;;;;;;;15.75;11.70;;;;;;;27.94;58.52;94503.19;5092331;28;20189;-45
2023/06/28 06:34:45;;;;;;;16.17;12.15;;;;;;;27.99;58.94;94508.47;5091868;28;20208;-44
2023/06/28 06:37:13;;;;;;;15.50;11.35;;;;;;;27.89;58.24;94481.28;5091803;28;20661;-46
2023/06/28 06:39:40;;;;;;;13.10;11.77;;;;;;;28.05;57.30;94505.88;5091447;28;20671;-45
2023/06/28 06:42:07;;;;;;;12.35;11.18;;;;;;;27.95;57.41;94506.59;5092077;28;20256;-45
2023/06/28 06:44:34;;;;;;;14.15;12.05;;;;;;;27.98;57.79;94514.00;5091609;28;20190;-45
2023/06/28 06:47:01;;;;;;;11.90;10.80;;;;;;;27.98;57.04;94509.53;5091822;28;20181;-45
2023/06/28 06:49:29;;;;;;;13.02;11.73;;;;;;;27.92;57.15;94510.50;5091551;28;20193;-45
2023/06/28 06:51:56;;;;;;;13.30;10.82;;;;;;;27.89;57.69;94508.41;5091734;28;20263;-44
2023/06/28 06:54:24;;;;;;;11.80;10.65;;;;;;;27.99;57.14;94497.16;5091472;28;20193;-45
2023/06/28 06:56:51;;;;;;;18.33;10.52;;;;;;;28.12;56.94;94496.75;5091220;28;20193;-45
2023/06/28 06:59:19;;;;;;;12.20;10.98;;;;;;;28.32;55.83;94492.66;5091757;28;20204;-45
2023/06/28 07:01:46;;;;;;;11.38;10.27;;;;;;;28.38;55.02;94508.25;5091135;28;20650;-45
2023/06/28 07:04:13;;;;;;;10.45;9.45;;;;;;;28.51;55.91;94509.66;5091572;28;20199;-44
2023/06/28 07:06:42;;;;;;;11.73;10.23;;;;;;;28.71;54.25;94512.41;5091049;28;20185;-45
2023/06/28 07:09:08;;;;;;;11.23;10.10;;;;;;;28.57;54.77;94502.56;5091306;28;20186;-46
2023/06/28 07:11:35;;;;;;;11.10;9.98;;;;;;;28.57;55.23;94507.84;5091455;28;20247;-44
2023/06/28 07:14:02;;;;;;;10.23;9.23;;;;;;;28.45;55.12;94498.31;5091230;28;20186;-46
2023/06/28 07:16:29;;;;;;;15.13;10.10;;;;;;;28.34;55.82;94480.84;5091085;28;20201;-47
2023/06/28 07:18:56;;;;;;;11.23;9.35;;;;;;;28.38;55.13;94505.63;5091551;28;20238;-44
2023/06/28 07:21:23;;;;;;;11.02;9.85;;;;;;;28.21;55.93;94497.84;5091156;28;20333;-44
2023/06/28 07:23:51;;;;;;;10.77;9.60;;;;;;;28.28;56.83;94502.88;5090813;28;20189;-46
2023/06/28 07:26:18;;;;;;;10.75;9.48;;;;;;;28.42;56.23;94501.44;5091006;28;20189;-44
2023/06/28 07:28:44;;;;;;;14.20;9.35;;;;;;;28.62;54.81;94498.13;5090923;28;20257;-43
2023/06/28 07:31:11;;;;;;;11.30;8.70;;;;;;;28.72;53.28;94506.09;5091136;28;20205;-46
2023/06/28 07:33:38;;;;;;;9.98;8.82;;;;;;;28.51;53.92;94507.03;5090515;28;20247;-44
2023/06/28 07:36:05;;;;;;;9.25;8.32;;;;;;;28.19;54.37;94512.28;5090645;28;20182;-44
2023/06/28 07:38:32;;;;;;;12.40;7.80;;;;;;;27.76;55.05;94503.53;5090554;28;20258;-44
2023/06/28 07:41:00;;;;;;;11.52;8.05;;;;;;;27.55;56.27;94513.03;5090956;28;20259;-46
2023/06/28 07:43:27;;;;;;;8.85;7.95;;;;;;;27.61;55.94;94506.00;5090697;28;20197;-44
2023/06/28 07:45:58;;;;;;;9.73;7.97;;;;;;;27.63;54.49;94511.78;5090513;28;20623;-45
2023/06/28 07:48:25;;;;;;;9.40;8.32;;;;;;;27.70;54.57;94510.53;5090452;28;20196;-43
2023/06/28 07:50:52;;;;;;;10.02;8.07;;;;;;;27.95;54.46;94514.47;5090875;28;20193;-45
2023/06/28 07:53:19;;;;;;;8.70;7.70;;;;;;;28.19;53.94;94512.28;5090082;28;20190;-44
2023/06/28 07:55:46;;;;;;;9.13;7.55;;;;;;;28.28;52.90;94510.78;5090711;28;20182;-44
2023/06/28 07:58:14;;;;;;;10.52;8.40;;;;;;;28.17;52.74;94514.41;5090414;28;20193;-44
2023/06/28 08:00:41;;;;;;;8.27;6.90;;;;;;;27.79;54.06;94512.75;5090286;28;20317;-45
2023/06/28 08:03:08;;;;;;;9.30;7.15;;;;;;;27.65;54.08;94515.75;5090340;28;20655;-46
2023/06/28 08:05:35;;;;;;;8.35;7.47;;;;;;;27.47;54.51;94514.28;5090924;28;20197;-43
2023/06/28 08:08:01;;;;;;;13.68;7.40;;;;;;;27.34;55.38;94514.66;5090297;28;20192;-44
2023/06/28 08:10:28;;;;;;;7.43;6.70;;;;;;;27.54;54.23;94506.19;5090198;28;20197;-45
2023/06/28 08:12:55;;;;;;;11.05;7.32;;;;;;;27.45;54.23;94499.78;5090573;28;20193;-45
2023/06/28 08:15:23;;;;;;;10.52;7.38;;;;;;;27.69;54.28;94513.44;5090159;28;20198;-45
2023/06/28 08:17:50;;;;;;;7.97;7.18;;;;;;;27.84;52.94;94505.69;5090095;28;20722;-44
2023/06/28 08:20:18;;;;;;;8.40;7.50;;;;;;;28.08;52.23;94500.91;5089901;28;20197;-44
2023/06/28 08:22:44;;;;;;;7.90;6.40;;;;;;;28.37;52.21;94508.50;5089864;28;20228;-44
2023/06/28 08:25:11;;;;;;;7.90;6.45;;;;;;;28.52;51.92;94505.19;5089733;28;20182;-45
2023/06/28 08:27:38;;;;;;;7.80;7.00;;;;;;;28.52;51.28;94502.56;5089879;28;20614;-44
2023/06/28 08:30:06;;;;;;;8.45;7.30;;;;;;;28.59;51.58;94498.66;5089676;28;20712;-45
2023/06/28 08:32:35;;;;;;;7.47;6.72;;;;;;;28.60;50.19;94494.19;5090290;28;20186;-44
2023/06/28 08:35:04;;;;;;;7.55;6.88;;;;;;;28.66;50.89;94486.03;5089800;28;20178;-45
2023/06/28 08:37:32;;;;;;;7.90;7.00;;;;;;;28.79;50.10;94490.06;5089484;28;20186;-43
2023/06/28 08:39:59;;;;;;;7.30;6.60;;;;;;;28.92;50.01;94496.69;5089611;28;20213;-46
2023/06/28 08:42:28;;;;;;;9.38;7.55;;;;;;;29.07;49.51;94488.91;5089712;28;20600;-43
2023/06/28 08:44:57;;;;;;;7.40;6.70;;;;;;;29.11;49.22;94487.34;5089693;28;20209;-45
2023/06/28 08:47:28;;;;;;;7.68;6.90;;;;;;;29.02;49.69;94488.06;5090154;28;20659;-45
2023/06/28 08:49:56;;;;;;;13.90;7.88;;;;;;;28.79;48.62;94486.63;5089764;28;20185;-45
2023/06/28 08:52:24;;;;;;;8.73;7.07;;;;;;;28.52;48.96;94484.94;5089632;28;20698;-44
2023/06/28 08:54:52;;;;;;;8.93;7.45;;;;;;;28.37;49.68;94488.28;5089765;28;20724;-48
2023/06/28 08:57:20;;;;;;;8.45;6.55;;;;;;;28.41;50.30;94481.47;5089659;28;20194;-44
2023/06/28 08:59:47;;;;;;;8.45;6.85;;;;;;;28.47;50.59;94475.16;5089731;28;20193;-45
2023/06/28 09:02:17;;;;;;;8.85;7.50;;;;;;;28.56;49.96;94472.06;5089388;28;20221;-44
2023/06/28 09:04:44;;;;;;;7.90;7.15;;;;;;;28.65;50.33;94479.22;5089633;28;20182;-45
2023/06/28 09:07:15;;;;;;;8.30;6.75;;;;;;;28.61;50.54;94477.34;5089300;28;20190;-46
2023/06/28 09:09:43;;;;;;;7.47;6.85;;;;;;;28.57;51.22;94476.25;5089792;28;20193;-46
2023/06/28 09:12:12;;;;;;;9.25;7.43;;;;;;;28.67;51.13;94463.97;5089462;28;20193;-46
2023/06/28 09:14:40;;;;;;;10.77;7.45;;;;;;;28.70;51.16;94467.91;5089322;28;20189;-45
2023/06/28 09:17:06;;;;;;;9.52;6.55;;;;;;;28.77;50.39;94468.47;5089154;28;20186;-45
2023/06/28 09:19:33;;;;;;;10.02;7.28;;;;;;;28.84;49.42;94468.22;5089647;28;20636;-45
2023/06/28 09:22:02;;;;;;;7.82;7.07;;;;;;;28.89;48.72;94476.97;5089253;28;20221;-46
2023/06/28 09:24:34;;;;;;;8.30;7.50;;;;;;;28.94;48.45;94469.06;5089611;28;20217;-45
2023/06/28 09:27:02;;;;;;;8.05;7.30;;;;;;;28.98;48.47;94467.53;5089175;28;20265;-45
2023/06/28 09:29:29;;;;;;;8.80;7.93;;;;;;;28.80;47.72;94452.19;5089247;28;20576;-45
2023/06/28 09:31:56;;;;;;;8.45;7.20;;;;;;;28.57;48.24;94453.38;5088885;28;20189;-43
2023/06/28 09:34:24;;;;;;;10.48;7.07;;;;;;;28.62;49.13;94457.88;5089269;28;20205;-45
2023/06/28 09:36:52;;;;;;;8.40;7.45;;;;;;;28.64;48.96;94453.16;5089146;28;20197;-45
2023/06/28 09:39:19;;;;;;;8.95;7.72;;;;;;;28.75;49.09;94449.50;5089269;28;20649;-47
2023/06/28 09:41:49;;;;;;;8.70;7.90;;;;;;;28.86;49.18;94452.97;5089142;28;20320;-45
2023/06/28 09:44:26;;;;;;;8.65;7.75;;;;;;;28.75;48.95;94454.75;5089233;28;20301;-45
2023/06/28 09:47:00;;;;;;;11.40;7.85;;;;;;;28.61;49.00;94451.03;5089324;28;20197;-44
2023/06/28 09:49:27;;;;;;;14.50;8.00;;;;;;;28.51;49.65;94464.94;5092553;28;20189;-45
2023/06/28 09:51:59;;;;;;;9.20;8.18;;;;;;;28.39;49.22;94451.97;5092946;28;20186;-44
2023/06/28 09:54:33;;;;;;;7.90;7.18;;;;;;;28.32;49.64;94456.63;5093053;28;20249;-42
2023/06/28 09:57:02;;;;;;;9.18;7.68;;;;;;;28.19;50.69;94459.69;5092465;28;20186;-45
2023/06/28 09:59:33;;;;;;;9.25;6.97;;;;;;;28.23;50.29;94455.50;5093359;28;20193;-45
2023/06/28 10:02:00;;;;;;;9.05;7.70;;;;;;;28.29;50.24;94451.88;5092667;28;20236;-45
2023/06/28 10:04:29;;;;;;;8.30;7.20;;;;;;;28.34;50.55;94449.28;5092990;28;20181;-46
2023/06/28 10:07:01;;;;;;;7.88;7.07;;;;;;;28.20;49.80;94453.41;5092313;28;20281;-45
2023/06/28 10:09:34;;;;;;;9.10;7.35;;;;;;;28.11;50.83;94445.19;5092687;28;20583;-46
2023/06/28 10:12:04;;;;;;;8.48;7.65;;;;;;;28.21;50.40;94447.09;5092217;28;20272;-46
2023/06/28 10:14:36;;;;;;;7.65;6.85;;;;;;;28.24;50.95;94449.22;5092808;28;20234;-44
2023/06/28 10:17:03;;;;;;;10.90;8.13;;;;;;;28.24;50.44;94450.03;5092304;28;20190;-45
2023/06/28 10:19:30;;;;;;;10.07;7.38;;;;;;;28.17;50.74;94448.66;5092268;28;20637;-44
2023/06/28 10:21:57;;;;;;;8.45;7.05;;;;;;;28.21;50.65;94434.75;5092306;28;20707;-44
2023/06/28 10:24:29;;;;;;;8.52;7.53;;;;;;;28.24;49.92;94442.13;5092668;28;20201;-45
2023/06/28 10:26:56;;;;;;;8.98;7.13;;;;;;;28.36;51.09;94431.41;5091993;28;20276;-46
2023/06/28 10:29:25;;;;;;;10.38;7.90;;;;;;;28.39;49.96;94444.06;5092251;28;20251;-46
2023/06/28 10:31:52;;;;;;;9.73;8.82;;;;;;;28.25;49.99;94438.44;5092527;28;20275;-46
2023/06/28 10:34:21;;;;;;;9.48;8.48;;;;;;;28.08;51.05;94442.28;5092269;28;20624;-46
2023/06/28 10:36:47;;;;;;;9.95;7.97;;;;;;;27.98;51.22;94435.13;5092050;28;20255;-45
2023/06/28 10:39:16;;;;;;;13.93;7.68;;;;;;;27.80;51.81;94435.50;5092029;28;20186;-44
2023/06/28 10:41:43;;;;;;;8.38;7.45;;;;;;;27.83;51.49;94438.41;5091900;28;20706;-43
2023/06/28 10:44:10;;;;;;;10.55;7.20;;;;;;;27.97;51.02;94431.69;5091809;28;20192;-45
2023/06/28 10:46:38;;;;;;;7.25;6.55;;;;;;;28.23;50.70;94434.47;5092154;28;20201;-45
2023/06/28 10:49:05;;;;;;;7.95;7.15;;;;;;;28.25;50.45;94421.88;5091789;28;20693;-44
2023/06/28 10:51:34;;;;;;;8.18;7.38;;;;;;;28.24;50.77;94434.25;5091861;28;20205;-46
2023/06/28 10:54:09;;;;;;;9.25;7.57;;;;;;;28.26;50.37;94429.50;5091618;28;20184;-45
2023/06/28 10:56:38;;;;;;;10.98;7.68;;;;;;;28.09;50.54;94417.56;5091862;28;20185;-43
2023/06/28 10:59:07;;;;;;;8.63;7.72;;;;;;;28.21;50.79;94439.22;5091010;28;20573;-45
2023/06/28 11:01:37;;;;;;;8.18;7.22;;;;;;;28.13;50.39;94429.94;5091589;28;20213;-45
2023/06/28 11:04:18;;;;;;;8.98;8.02;;;;;;;28.17;51.01;94433.66;5091123;28;20193;-45
2023/06/28 11:06:45;;;;;;;7.47;6.78;;;;;;;28.17;51.50;94438.13;5091484;28;20201;-46
2023/06/28 11:09:14;;;;;;;9.90;6.85;;;;;;;28.14;50.08;94438.63;5091218;28;20576;-45
2023/06/28 11:11:52;;;;;;;8.18;7.38;;;;;;;28.05;50.39;94435.69;5091310;28;20280;-44
2023/06/28 11:14:23;;;;;;;8.23;7.13;;;;;;;27.90;49.71;94431.13;5091166;28;20186;-45
2023/06/28 11:16:51;;;;;;;7.88;6.85;;;;;;;27.75;50.82;94434.41;5091150;28;20276;-44
2023/06/28 11:19:22;;;;;;;9.02;7.32;;;;;;;27.58;50.20;94440.81;5091303;28;20204;-45
2023/06/28 11:21:56;;;;;;;11.60;7.50;;;;;;;27.35;51.44;94437.44;5091150;28;20308;-44
2023/06/28 11:24:41;;;;;;;7.88;6.90;;;;;;;27.41;52.32;94435.66;5091125;28;20185;-44
2023/06/28 11:27:11;;;;;;;9.13;6.90;;;;;;;27.59;52.56;94437.13;5090981;28;20178;-44
2023/06/28 11:29:54;;;;;;;10.68;7.28;;;;;;;27.79;50.65;94441.81;5090808;28;20235;-45